Addison, Illinois
Current Conditions -  °F | °C
As of 1:51 AM on Thursday 18 Dec 2014 (Local Time) from KORD Reporting Station
Overcast Overcast  
Wind Chill: -9°   Ceiling: 2200
Heat Index: -5°   Visibility: 10mi
Dew Point: -9°   Wind: 6mph
Humidity: 72%   Direction: 300°WNW
Pressure: 30.28"   Gusts: NA
Location:  41.93°N, 87.99°W
Report Text: KORD 180751Z 30005KT 10SM OVC022 M05/M09 A3028 RMK AO2 SLP264 T10501094
Loading
Personal Weather Stations






























Interactive Weather Map New forecast layout! Learn more

10-Day Weather Forecast

Advertisements
Track Severe Weather on mobile